Time,TemperatureF,DewpointF,PressureIn,WindDirection,WindDirectionDegrees,WindSpeedMPH,WindSpeedGustMPH,Humidity,HourlyPrecipIn,Conditions,Clouds,dailyrainin,SoftwareType,DateUTC
2014-02-18 04:52:00,48.0,24.0,30.09,ENE,77,0.0,0.0,38,0.00,,,-99.99,,2014-02-18 10:52:00,
2014-02-18 05:12:00,46.0,22.0,30.09,SSE,158,0.0,0.0,39,0.00,,,-99.99,,2014-02-18 11:12:00,
2014-02-18 05:22:00,46.0,22.0,30.09,SSE,158,0.0,0.0,39,0.00,,,-99.99,,2014-02-18 11:22:00,
2014-02-18 05:53:00,46.0,24.0,30.09,SSE,156,0.0,0.0,41,0.00,,,-99.99,,2014-02-18 11:53:00,
2014-02-18 06:12:00,46.0,24.0,30.09,SSE,157,0.0,0.0,42,0.00,,,-99.99,,2014-02-18 12:12:00,
2014-02-18 06:22:00,46.0,24.0,30.09,SSE,157,0.0,0.0,42,0.00,,,-99.99,,2014-02-18 12:22:00,
2014-02-18 06:53:00,47.0,24.0,30.09,NNW,331,2.0,3.0,40,0.00,,,-99.99,,2014-02-18 12:53:00,
2014-02-18 07:22:00,48.0,24.0,30.09,NNE,13,2.0,3.0,39,0.00,,,-99.99,,2014-02-18 13:22:00,
2014-02-18 10:42:00,62.0,40.0,30.11,SSW,193,3.0,4.0,44,0.00,,,-99.99,,2014-02-18 16:42:00,
2014-02-18 10:53:00,62.0,40.0,30.11,SSW,193,3.0,4.0,44,0.00,,,-99.99,,2014-02-18 16:53:00,
2014-02-18 11:02:00,62.0,40.0,30.11,SSW,193,3.0,4.0,44,0.00,,,-99.99,,2014-02-18 17:02:00,
2014-02-18 11:12:00,62.0,40.0,30.11,SSW,193,3.0,4.0,44,0.00,,,-99.99,,2014-02-18 17:12:00,
2014-02-18 11:52:00,70.0,56.0,30.07,South,172,2.0,13.0,62,0.00,,,-99.99,,2014-02-18 17:52:00,
2014-02-18 12:23:00,71.0,58.0,30.06,SW,235,12.0,20.0,64,0.00,,,-99.99,,2014-02-18 18:23:00,
2014-02-18 12:32:00,71.0,58.0,30.06,SW,235,12.0,20.0,64,0.00,,,-99.99,,2014-02-18 18:32:00,
2014-02-18 12:52:00,72.0,58.0,30.03,South,186,6.0,17.0,62,0.00,,,-99.99,,2014-02-18 18:52:00,
2014-02-18 13:02:00,72.0,58.0,30.03,South,186,6.0,17.0,62,0.00,,,-99.99,,2014-02-18 19:02:00,
2014-02-18 13:12:00,72.0,58.0,30.03,South,186,6.0,17.0,62,0.00,,,-99.99,,2014-02-18 19:12:00,
2014-02-18 13:22:00,72.0,58.0,30.03,South,186,6.0,17.0,62,0.00,,,-99.99,,2014-02-18 19:22:00,
2014-02-18 13:52:00,74.0,58.0,30.00,West,262,6.0,16.0,57,0.00,,,-99.99,,2014-02-18 19:52:00,
2014-02-18 14:22:00,75.0,58.0,29.98,West,264,11.0,17.0,55,0.00,,,-99.99,,2014-02-18 20:22:00,
2014-02-18 14:52:00,75.0,58.0,29.96,SW,224,5.0,15.0,55,0.00,,,-99.99,,2014-02-18 20:52:00,
2014-02-18 15:11:00,75.0,57.0,29.95,SSW,208,9.0,16.0,54,0.00,,,-99.99,,2014-02-18 21:11:00,
2014-02-18 15:22:00,75.0,57.0,29.95,SSW,208,9.0,16.0,54,0.00,,,-99.99,,2014-02-18 21:22:00,
2014-02-18 15:53:00,76.0,59.0,29.93,WSW,249,5.0,14.0,55,0.00,,,-99.99,,2014-02-18 21:53:00,
2014-02-18 16:23:00,76.0,58.0,29.92,South,177,6.0,14.0,54,0.00,,,-99.99,,2014-02-18 22:23:00,
2014-02-18 16:42:00,76.0,58.0,29.94,SSW,208,5.0,14.0,54,0.00,,,-99.99,,2014-02-18 22:42:00,
2014-02-18 16:54:00,76.0,58.0,29.94,SSW,208,5.0,14.0,54,0.00,,,-99.99,,2014-02-18 22:54:00,
2014-02-18 17:12:00,75.0,58.0,29.91,SW,229,11.0,18.0,56,0.00,,,-99.99,,2014-02-18 23:12:00,
2014-02-18 17:22:00,75.0,58.0,29.91,SW,229,11.0,18.0,56,0.00,,,-99.99,,2014-02-18 23:22:00,
2014-02-18 17:42:00,74.0,57.0,29.90,SW,221,10.0,17.0,56,0.00,,,-99.99,,2014-02-18 23:42:00,
2014-02-18 17:53:00,74.0,57.0,29.90,SW,221,10.0,17.0,56,0.00,,,-99.99,,2014-02-18 23:53:00,
2014-02-18 18:22:00,73.0,58.0,29.89,SW,219,7.0,13.0,60,0.00,,,-99.99,,2014-02-19 00:22:00,
2014-02-18 18:32:00,73.0,58.0,29.89,SW,219,7.0,13.0,60,0.00,,,-99.99,,2014-02-19 00:32:00,
2014-02-18 18:52:00,73.0,58.0,29.89,SW,219,7.0,13.0,60,0.00,,,-99.99,,2014-02-19 00:52:00,
2014-02-18 19:22:00,68.0,57.0,29.92,SW,218,4.0,8.0,68,0.00,,,-99.99,,2014-02-19 01:22:00,
2014-02-18 19:52:00,67.0,58.0,29.93,SSW,207,3.0,5.0,72,0.00,,,-99.99,,2014-02-19 01:52:00,
2014-02-18 20:22:00,72.0,58.0,29.90,South,176,2.0,10.0,62,0.00,,,-99.99,,2014-02-19 02:22:00,
2014-02-18 20:32:00,72.0,58.0,29.90,South,176,2.0,10.0,62,0.00,,,-99.99,,2014-02-19 02:32:00,
2014-02-18 20:52:00,65.0,57.0,29.94,SSE,158,2.0,6.0,76,0.00,,,-99.99,,2014-02-19 02:52:00,
2014-02-18 21:11:00,68.0,57.0,29.92,SW,218,4.0,8.0,68,0.00,,,-99.99,,2014-02-19 03:11:00,
2014-02-18 21:22:00,68.0,57.0,29.92,SW,218,4.0,8.0,68,0.00,,,-99.99,,2014-02-19 03:22:00,
2014-02-18 21:33:00,68.0,57.0,29.92,SW,218,4.0,8.0,68,0.00,,,-99.99,,2014-02-19 03:33:00,
2014-02-18 22:13:00,62.0,57.0,29.95,SSE,162,1.0,2.0,83,0.00,,,-99.99,,2014-02-19 04:13:00,
2014-02-18 22:23:00,62.0,57.0,29.95,SSE,162,1.0,2.0,83,0.00,,,-99.99,,2014-02-19 04:23:00,
2014-02-18 22:42:00,65.0,57.0,29.94,SSE,158,2.0,6.0,76,0.00,,,-99.99,,2014-02-19 04:42:00,
2014-02-18 23:43:00,60.0,57.0,29.95,SSW,212,2.0,2.0,90,0.00,,,-99.99,,2014-02-19 05:43:00,
2014-02-18 23:52:00,60.0,57.0,29.95,SSW,212,2.0,2.0,90,0.00,,,-99.99,,2014-02-19 05:52:00,